Radiance Of The Seas — C6SE7 — position and weather

sailwx.info

Track history (hours):
 
Tides and Currents Weather Stations Pressure Air Temp Water Temp Dewpoint Dewpoint Depression Visibility Wind Speed Wind Dir Waves Ship Positions

Radiance Of The Seas

Operator: Royal Caribbean Cruises Ltd

Last reported at 2017-Aug-12 21:55 UTC. Time now 2017-Aug-16 19:19 UTC.
Position N 51°54' W 129°19'.

Type: Passenger vessel. MMSI: 311319000.

Date/timePositionNaut miles runAvg speedWind from/ knotsBaromVisibWave heightAir tempDewpointWater temp
2017-Aug-12 21:55N 51°54' W 129°19'615.6
2017-Aug-12 21:31N 51°49' W 129°13'815.7
2017-Aug-12 21:00N 51°43' W 129°04'815.7
2017-Aug-12 20:30N 51°37' W 128°56'815.3
2017-Aug-12 20:00N 51°31' W 128°49'815.6
2017-Aug-12 19:31N 51°25' W 128°41'815.5
2017-Aug-12 19:00N 51°18' W 128°33'815.4
2017-Aug-12 18:30N 51°14' W 128°23'815.7
2017-Aug-12 18:00N 51°09' W 128°13'815.3
2017-Aug-12 17:30N 51°05' W 128°03'815.5
2017-Aug-12 17:00N 51°01' W 127°53'714.5
2017-Aug-12 16:30N 50°57' W 127°43'816.6
2017-Aug-12 16:00N 50°52' W 127°33'918.2
2017-Aug-12 15:30N 50°48' W 127°20'917.5
2017-Aug-12 15:00N 50°45' W 127°07'917.9
2017-Aug-12 14:30N 50°41' W 126°54'6016.9
2017-Aug-12 10:58N 50°20' W 125°26'919.5
2017-Aug-12 10:30N 50°11' W 125°22'612.5
2017-Aug-12 10:00N 50°06' W 125°17'613.0
2017-Aug-12 09:30N 50°00' W 125°12'611.1
2017-Aug-12 09:00N 49°56' W 125°07'611.1
2017-Aug-12 08:30N 49°52' W 125°01'510.8
2017-Aug-12 08:01N 49°48' W 124°54'511.0
2017-Aug-12 07:30N 49°45' W 124°48'510.7
2017-Aug-12 07:00N 49°41' W 124°42'510.4
2017-Aug-12 06:30N 49°37' W 124°37'510.3
2017-Aug-12 06:00N 49°33' W 124°32'5 9.5
2017-Aug-12 05:30N 49°30' W 124°26'510.0
2017-Aug-12 05:00N 49°27' W 124°20'5 9.3
2017-Aug-12 04:30N 49°24' W 124°14'5 9.6
2017-Aug-12 04:00N 49°23' W 124°07'5 9.8
2017-Aug-12 03:30N 49°22' W 124°00'510.3
2017-Aug-12 03:00N 49°21' W 123°52'510.4
2017-Aug-12 02:30N 49°20' W 123°44'510.0
2017-Aug-12 02:00N 49°20' W 123°37'5 9.9
2017-Aug-12 01:30N 49°19' W 123°29'5 9.9
2017-Aug-12 01:00N 49°19' W 123°22'5 9.9
2017-Aug-12 00:30N 49°19' W 123°14'5 9.7
2017-Aug-12 00:00N 49°18' W 123°07'1 1.8
2017-Aug-11 23:30N 49°17' W 123°06'0 0.0
2017-Aug-11 22:54N 49°17' W 123°06'0 0.0
2017-Aug-11 22:30N 49°17' W 123°06'0 0.0
2017-Aug-11 21:51N 49°17' W 123°06'0 0.0
2017-Aug-11 21:27N 49°17' W 123°06'0 0.0
2017-Aug-11 21:00N 49°17' W 123°06'0 0.0
2017-Aug-11 20:30N 49°17' W 123°06'0 0.0
2017-Aug-11 19:57N 49°17' W 123°06'0 0.0
2017-Aug-11 19:30N 49°17' W 123°06'0 0.0
2017-Aug-11 19:00N 49°17' W 123°06'0 0.0
2017-Aug-11 18:30N 49°17' W 123°06'0 0.0
2017-Aug-11 18:00N 49°17' W 123°06'0 0.0
2017-Aug-11 17:24N 49°17' W 123°06'0 0.0
2017-Aug-11 17:00N 49°17' W 123°06'0 0.0
2017-Aug-11 16:27N 49°17' W 123°06'0 0.0
2017-Aug-11 15:57N 49°17' W 123°06'0 0.0
2017-Aug-11 15:30N 49°17' W 123°06'0 0.0
2017-Aug-11 15:00N 49°17' W 123°06'0 0.0
2017-Aug-11 14:01N 49°17' W 123°06'0 0.9
2017-Aug-11 13:31N 49°18' W 123°06'4 7.6
2017-Aug-11 13:01N 49°19' W 123°12'510.2
2017-Aug-11 12:31N 49°19' W 123°20'611.0
2017-Aug-11 12:00N 49°19' W 123°28'611.0
2017-Aug-11 11:30N 49°18' W 123°37'510.8
2017-Aug-11 11:01N 49°19' W 123°45'5 9.8
2017-Aug-11 10:31N 49°20' W 123°52'5 9.7
2017-Aug-11 10:01N 49°22' W 123°59'510.1
2017-Aug-11 09:31N 49°23' W 124°07'510.0
2017-Aug-11 09:01N 49°24' W 124°14'510.2
2017-Aug-11 08:31N 49°27' W 124°21'510.4
2017-Aug-11 08:00N 49°30' W 124°27'510.1
2017-Aug-11 07:30N 49°34' W 124°32'510.2
2017-Aug-11 07:00N 49°38' W 124°38'510.6
2017-Aug-11 06:31N 49°41' W 124°43'510.4
2017-Aug-11 06:00N 49°45' W 124°49'510.4
2017-Aug-11 05:30N 49°49' W 124°55'510.4
2017-Aug-11 05:00N 49°52' W 125°01'510.5
2017-Aug-11 04:30N 49°56' W 125°07'510.9
2017-Aug-11 04:00N 49°60' W 125°12'510.2
2017-Aug-11 03:31N 50°04' W 125°16'613.0
2017-Aug-11 03:01N 50°10' W 125°22'1018.1
2017-Aug-11 02:29N 50°19' W 125°25'3016.9
2017-Aug-11 00:42N 50°28' W 126°10'1723.4
2017-Aug-10 23:59N 50°31' W 126°36'4 7.9
2017-Aug-10 23:26N 50°33' W 126°41'816.5
2017-Aug-10 22:56N 50°39' W 126°50'717.2
2017-Aug-10 22:30N 50°43' W 127°00'3916.5
2017-Aug-10 20:07N 51°01' W 127°55'517.2
2017-Aug-10 19:51N 51°04' W 128°01'617.7
2017-Aug-10 19:30N 51°08' W 128°09'917.4
2017-Aug-10 19:00N 51°13' W 128°20'917.7
2017-Aug-10 18:30N 51°19' W 128°31'917.4
2017-Aug-10 18:01N 51°25' W 128°40'917.7
2017-Aug-10 17:30N 51°32' W 128°49'917.6
2017-Aug-10 17:00N 51°39' W 128°58'917.4
2017-Aug-10 16:30N 51°46' W 129°07'1017.5
2017-Aug-10 15:57N 51°53' W 129°17'917.7
2017-Aug-10 15:27N 51°60' W 129°26'2217.8
2017-Aug-10 14:11N 52°17' W 129°49'2818.2
2017-Aug-10 12:40N 52°39' W 130°17'517.9
2017-Aug-10 12:23N 52°43' W 130°22'  
2017-Aug-06 11:27N 58°10' W 135°19'715.3
2017-Aug-06 10:59N 58°13' W 135°31'715.2
2017-Aug-06 10:30N 58°17' W 135°43'814.8
2017-Aug-06 09:57N 58°19' W 135°58'  
2017-Aug-03 07:01N 58°19' W 136°12'121.0
2017-Aug-03 06:59N 58°19' W 136°10'1020.9
2017-Aug-03 06:30N 58°19' W 135°51'1021.0
2017-Aug-03 06:00N 58°16' W 135°32'  
Track history (hours):
 
Tides and Currents Weather Stations Pressure Air Temp Water Temp Dewpoint Dewpoint Depression Visibility Wind Speed Wind Dir Waves Ship Positions

Radiance Of The Seas

Operator: Royal Caribbean Cruises Ltd

Last reported at 2017-Aug-12 21:55 UTC. Time now 2017-Aug-16 19:19 UTC.
Position N 51°54' W 129°19'.

Type: Passenger vessel. MMSI: 311319000.

Date/timePositionNaut miles runAvg speedWind from/ knotsBaromVisibWave heightAir tempDewpointWater temp
2017-Aug-12 21:55N 51°54' W 129°19'615.6
2017-Aug-12 21:31N 51°49' W 129°13'815.7
2017-Aug-12 21:00N 51°43' W 129°04'815.7
2017-Aug-12 20:30N 51°37' W 128°56'815.3
2017-Aug-12 20:00N 51°31' W 128°49'815.6
2017-Aug-12 19:31N 51°25' W 128°41'815.5
2017-Aug-12 19:00N 51°18' W 128°33'815.4
2017-Aug-12 18:30N 51°14' W 128°23'815.7
2017-Aug-12 18:00N 51°09' W 128°13'815.3
2017-Aug-12 17:30N 51°05' W 128°03'815.5
2017-Aug-12 17:00N 51°01' W 127°53'714.5
2017-Aug-12 16:30N 50°57' W 127°43'816.6
2017-Aug-12 16:00N 50°52' W 127°33'918.2
2017-Aug-12 15:30N 50°48' W 127°20'917.5
2017-Aug-12 15:00N 50°45' W 127°07'917.9
2017-Aug-12 14:30N 50°41' W 126°54'6016.9
2017-Aug-12 10:58N 50°20' W 125°26'919.5
2017-Aug-12 10:30N 50°11' W 125°22'612.5
2017-Aug-12 10:00N 50°06' W 125°17'613.0
2017-Aug-12 09:30N 50°00' W 125°12'611.1
2017-Aug-12 09:00N 49°56' W 125°07'611.1
2017-Aug-12 08:30N 49°52' W 125°01'510.8
2017-Aug-12 08:01N 49°48' W 124°54'511.0
2017-Aug-12 07:30N 49°45' W 124°48'510.7
2017-Aug-12 07:00N 49°41' W 124°42'510.4
2017-Aug-12 06:30N 49°37' W 124°37'510.3
2017-Aug-12 06:00N 49°33' W 124°32'5 9.5
2017-Aug-12 05:30N 49°30' W 124°26'510.0
2017-Aug-12 05:00N 49°27' W 124°20'5 9.3
2017-Aug-12 04:30N 49°24' W 124°14'5 9.6
2017-Aug-12 04:00N 49°23' W 124°07'5 9.8
2017-Aug-12 03:30N 49°22' W 124°00'510.3
2017-Aug-12 03:00N 49°21' W 123°52'510.4
2017-Aug-12 02:30N 49°20' W 123°44'510.0
2017-Aug-12 02:00N 49°20' W 123°37'5 9.9
2017-Aug-12 01:30N 49°19' W 123°29'5 9.9
2017-Aug-12 01:00N 49°19' W 123°22'5 9.9
2017-Aug-12 00:30N 49°19' W 123°14'5 9.7
2017-Aug-12 00:00N 49°18' W 123°07'1 1.8
2017-Aug-11 23:30N 49°17' W 123°06'0 0.0
2017-Aug-11 22:54N 49°17' W 123°06'0 0.0
2017-Aug-11 22:30N 49°17' W 123°06'0 0.0
2017-Aug-11 21:51N 49°17' W 123°06'0 0.0
2017-Aug-11 21:27N 49°17' W 123°06'0 0.0
2017-Aug-11 21:00N 49°17' W 123°06'0 0.0
2017-Aug-11 20:30N 49°17' W 123°06'0 0.0
2017-Aug-11 19:57N 49°17' W 123°06'0 0.0
2017-Aug-11 19:30N 49°17' W 123°06'0 0.0
2017-Aug-11 19:00N 49°17' W 123°06'0 0.0
2017-Aug-11 18:30N 49°17' W 123°06'0 0.0
2017-Aug-11 18:00N 49°17' W 123°06'0 0.0
2017-Aug-11 17:24N 49°17' W 123°06'0 0.0
2017-Aug-11 17:00N 49°17' W 123°06'0 0.0
2017-Aug-11 16:27N 49°17' W 123°06'0 0.0
2017-Aug-11 15:57N 49°17' W 123°06'0 0.0
2017-Aug-11 15:30N 49°17' W 123°06'0 0.0
2017-Aug-11 15:00N 49°17' W 123°06'0 0.0
2017-Aug-11 14:01N 49°17' W 123°06'0 0.9
2017-Aug-11 13:31N 49°18' W 123°06'4 7.6
2017-Aug-11 13:01N 49°19' W 123°12'510.2
2017-Aug-11 12:31N 49°19' W 123°20'611.0
2017-Aug-11 12:00N 49°19' W 123°28'611.0
2017-Aug-11 11:30N 49°18' W 123°37'510.8
2017-Aug-11 11:01N 49°19' W 123°45'5 9.8
2017-Aug-11 10:31N 49°20' W 123°52'5 9.7
2017-Aug-11 10:01N 49°22' W 123°59'510.1
2017-Aug-11 09:31N 49°23' W 124°07'510.0
2017-Aug-11 09:01N 49°24' W 124°14'510.2
2017-Aug-11 08:31N 49°27' W 124°21'510.4
2017-Aug-11 08:00N 49°30' W 124°27'510.1
2017-Aug-11 07:30N 49°34' W 124°32'510.2
2017-Aug-11 07:00N 49°38' W 124°38'510.6
2017-Aug-11 06:31N 49°41' W 124°43'510.4
2017-Aug-11 06:00N 49°45' W 124°49'510.4
2017-Aug-11 05:30N 49°49' W 124°55'510.4
2017-Aug-11 05:00N 49°52' W 125°01'510.5
2017-Aug-11 04:30N 49°56' W 125°07'510.9
2017-Aug-11 04:00N 49°60' W 125°12'510.2
2017-Aug-11 03:31N 50°04' W 125°16'613.0
2017-Aug-11 03:01N 50°10' W 125°22'1018.1
2017-Aug-11 02:29N 50°19' W 125°25'3016.9
2017-Aug-11 00:42N 50°28' W 126°10'1723.4
2017-Aug-10 23:59N 50°31' W 126°36'4 7.9
2017-Aug-10 23:26N 50°33' W 126°41'816.5
2017-Aug-10 22:56N 50°39' W 126°50'717.2
2017-Aug-10 22:30N 50°43' W 127°00'3916.5
2017-Aug-10 20:07N 51°01' W 127°55'517.2
2017-Aug-10 19:51N 51°04' W 128°01'617.7
2017-Aug-10 19:30N 51°08' W 128°09'917.4
2017-Aug-10 19:00N 51°13' W 128°20'917.7
2017-Aug-10 18:30N 51°19' W 128°31'917.4
2017-Aug-10 18:01N 51°25' W 128°40'917.7
2017-Aug-10 17:30N 51°32' W 128°49'917.6
2017-Aug-10 17:00N 51°39' W 128°58'917.4
2017-Aug-10 16:30N 51°46' W 129°07'1017.5
2017-Aug-10 15:57N 51°53' W 129°17'917.7
2017-Aug-10 15:27N 51°60' W 129°26'2217.8
2017-Aug-10 14:11N 52°17' W 129°49'2818.2
2017-Aug-10 12:40N 52°39' W 130°17'517.9
2017-Aug-10 12:23N 52°43' W 130°22'  
2017-Aug-06 11:27N 58°10' W 135°19'715.3
2017-Aug-06 10:59N 58°13' W 135°31'715.2
2017-Aug-06 10:30N 58°17' W 135°43'814.8
2017-Aug-06 09:57N 58°19' W 135°58'  
2017-Aug-03 07:01N 58°19' W 136°12'121.0
2017-Aug-03 06:59N 58°19' W 136°10'1020.9
2017-Aug-03 06:30N 58°19' W 135°51'1021.0
2017-Aug-03 06:00N 58°16' W 135°32'  

Dump ship's entire track history